Flight Track Log - Related Links

Times and Time Zones

All times are in EDT time to prevent confusion due to time zone crossing. See the EJA831 flight status page for this flight to view local times or setup timezone preferences in your user account.

Time Position Orientation Groundspeed Altitude Reporting Facility
EDT Latitude Longitude Course Direction KTS MPH feet Rate Location/Type
Wed 21:09:33 43.0669 -73.8469 154° Southeast 168 193 1,300  Level Boston Center
Wed 21:11:14 43.0133 -73.8117 154° Southeast 236 272 6,800 3,503 Climbing Boston Center
Wed 21:12:14 42.9300 -73.8097 179° South 269 310 10,700 3,300 Climbing Boston Center
Wed 21:13:14 42.8444 -73.8106 180° South 292 336 13,400 2,850 Climbing Boston Center
Wed 21:14:14 42.7486 -73.8114 180° South 316 364 16,400 2,700 Climbing Boston Center
Wed 21:15:14 42.6542 -73.8489 196° South 342 394 18,800 2,600 Climbing Boston Center
Wed 21:16:14 42.5661 -73.8892 199° South 357 411 21,600 2,500 Climbing Boston Center
Wed 21:17:14 42.4886 -73.9239 198° South 363 418 23,800 2,700 Climbing Boston Center
Wed 21:18:14 42.3733 -73.9744 198° South 368 423 27,000 2,700 Climbing Boston Center
Wed 21:19:14 42.2769 -74.0197 199° South 368 423 29,200 1,500 Climbing Boston Center
Wed 21:20:14 42.1700 -74.0647 197° South 381 438 30,000 400 Climbing Boston Center
Wed 21:21:14 42.0525 -74.1178 199° South 415 478 30,000  Level Boston Center
Wed 21:22:54 41.8489 -74.2017 197° South 444 511 30,000  Level New York Center
Wed 21:23:52 41.7244 -74.2561 198° South 464 534 30,000  Level New York Center
Wed 21:24:53 41.6022 -74.3081 198° South 469 540 30,000  Level New York Center
Wed 21:25:54 41.4861 -74.3600 199° South 457 526 30,000  Level New York Center
Wed 21:26:54 41.3594 -74.4142 198° South 463 533 30,000  Level New York Center
Wed 21:27:52 41.2350 -74.4625 196° South 468 539 30,000 -153 Level New York Center
Wed 21:28:52 41.1147 -74.5192 200° South 473 544 29,700 -800 Descending New York Center
Wed 21:29:52 41.0014 -74.6039 209° Southwest 468 539 28,400 -843 Descending New York Center
Wed 21:30:53 40.9203 -74.7283 229° Southwest 450 518 28,000 -250 Descending New York Center
Wed 21:31:52 40.8483 -74.8803 238° Southwest 452 520 27,900 -555 Descending New York Center
Wed 21:32:52 40.7767 -75.0214 236° Southwest 452 520 26,900 -1,000 Descending New York Center
Wed 21:33:52 40.7094 -75.1567 237° Southwest 452 520 25,900 -1,000 Descending New York Center
Wed 21:34:52 40.6439 -75.2892 237° Southwest 447 514 24,900 -992 Descending New York Center
Wed 21:35:53 40.5742 -75.4186 235° Southwest 447 514 23,900 -1,041 Descending New York Center
Wed 21:36:53 40.5108 -75.5481 237° Southwest 447 514 22,800 -1,100 Descending New York Center
Wed 21:37:53 40.4450 -75.6744 236° Southwest 437 503 21,700 -1,100 Descending New York Center
Wed 21:38:53 40.3817 -75.7981 236° Southwest 424 488 20,600 -850 Descending New York Center
Wed 21:39:53 40.3186 -75.9078 233° Southwest 424 488 20,000 -300 Descending New York Center
Wed 21:40:53 40.2547 -76.0308 236° Southwest 424 488 20,000  Level New York Center
Wed 21:41:53 40.1928 -76.1539 237° Southwest 418 481 20,000  Level New York Center
Wed 21:42:54 40.1200 -76.2894 235° Southwest 418 481 20,000  Level New York Center
Wed 21:43:54 40.0619 -76.4150 239° Southwest 418 481 20,000 -248 Level New York Center
Wed 21:44:55 40.0036 -76.5406 239° Southwest 413 475 19,500 -857 Descending New York Center
Wed 21:45:53 39.9475 -76.6631 239° Southwest 407 468 18,300 -957 Descending New York Center
Wed 21:48:03 39.8333 -76.9167 240° Southwest 379 436 16,500 -980 Descending Potomac TRACON
Wed 21:49:09 39.7833 -77.0333 241° Southwest 372 428 15,100 -1,048 Descending Potomac TRACON
Wed 21:50:09 39.7333 -77.1333 237° Southwest 360 414 14,300 -1,700 Descending Potomac TRACON
Wed 21:51:09 39.6667 -77.2500 233° Southwest 353 406 11,700 -2,400 Descending Potomac TRACON
Wed 21:52:09 39.6167 -77.3333 232° Southwest 330 380 9,500 -2,050 Descending Potomac TRACON
Wed 21:53:09 39.5500 -77.3333 180° South 275 316 7,600 -1,667 Descending Potomac TRACON
Wed 21:54:15 39.4500 -77.3333 180° South 266 306 6,000 -1,000 Descending Potomac TRACON
Wed 21:55:09 39.4000 -77.3500 194° South 266 306 5,600 -1,000 Descending Potomac TRACON
Wed 21:56:09 39.3167 -77.3500 180° South 268 308 4,100 -800 Descending Potomac TRACON
Wed 21:57:09 39.2500 -77.3500 180° South 264 304 4,000 -48 Descending Potomac TRACON
Wed 21:58:15 39.1667 -77.3500 180° South 267 307 4,000 50 Level Potomac TRACON
Wed 21:59:09 39.1000 -77.3500 180° South 270 311 4,100 53 Climbing Potomac TRACON
Wed 22:00:09 39.0167 -77.3500 180° South 272 313 4,100  Level Potomac TRACON
Wed 22:01:09 38.9500 -77.3500 180° South 267 307 4,100  Level Potomac TRACON
Wed 22:02:09 38.8833 -77.3500 180° South 267 307 4,100  Level Potomac TRACON
Wed 22:03:03 38.8000 -77.3667 189° South 266 306 4,100  Level Potomac TRACON
Wed 22:04:09 38.7333 -77.3667 180° South 266 306 4,100  Level Potomac TRACON
Wed 22:05:03 38.6667 -77.3667 180° South 267 307 4,100 -526 Level Potomac TRACON
Wed 22:06:03 38.6000 -77.3667 180° South 264 304 3,100 -500 Descending Potomac TRACON
Wed 22:07:03 38.5333 -77.3667 180° South 256 295 3,100 -104 Level Potomac TRACON
Wed 22:07:58 38.4667 -77.3833 191° South 225 259 2,900 -678 Descending Potomac TRACON
Wed 22:08:58 38.4167 -77.4000 195° South 180 207 1,800 -619 Descending Potomac TRACON
Wed 22:10:04 38.3833 -77.4000 180° South 152 175 1,600 -571 Descending Potomac TRACON
Wed 22:11:04 38.3833 -77.4333 270° West 171 197 600 -632 Descending Potomac TRACON
Wed 22:11:58 38.4167 -77.4833 310° West 120 138 400 -105 Descending Potomac TRACON
Wed 22:12:58 38.4167 -77.4833 218° Southwest 120 138 400  Level Potomac TRACON
Wed 22:13:58 38.4167 -77.4833 218° Southwest 120 138 400  Level Potomac TRACON
Wed 22:15:58 38.4167 -77.4833 218° Southwest 120 138 400  Level Potomac TRACON

Login

Don't have an account? Register now (free) for customized features, flight alerts, and more!